Baker, North Dakota
Current Conditions -  °F | °C
As of 11:15 PM on Saturday 20 Dec 2014 (Local Time) from K9D7 Reporting Station
Moderate Fog Moderate Fog  
Wind Chill: 20°   Ceiling: 200
Heat Index: 27°   Visibility: 0.5mi
Dew Point: 25°   Wind: 6mph
Humidity: 93%   Direction: 160°SSE
Pressure: 29.77"   Gusts: NA
Location:  48.3264°N, 99.5237°W
Report Text: K9D7 210515Z AUTO 16005KT 1/2SM FZFG OVC002 M03/M04 A2977 RMK AO2
Loading
Personal Weather Stations






























Interactive Weather Map New forecast layout! Learn more

10-Day Weather Forecast

Advertisements
Track Severe Weather on mobile